sensor_id;sensor_type;location;lat;lon;timestamp;temperature;humidity
58517;DHT22;44308;50.810;0.284;2022-10-31T00:02:15;15.50;99.90
58517;DHT22;44308;50.810;0.284;2022-10-31T00:04:41;15.10;99.90
58517;DHT22;44308;50.810;0.284;2022-10-31T00:07:07;15.00;99.90
58517;DHT22;44308;50.810;0.284;2022-10-31T00:09:33;15.00;99.90
58517;DHT22;44308;50.810;0.284;2022-10-31T00:11:58;15.40;99.90
58517;DHT22;44308;50.810;0.284;2022-10-31T00:14:24;14.90;99.90
58517;DHT22;44308;50.810;0.284;2022-10-31T00:16:50;15.20;99.90
58517;DHT22;44308;50.810;0.284;2022-10-31T00:19:15;14.90;99.90
58517;DHT22;44308;50.810;0.284;2022-10-31T00:21:41;15.30;99.90
58517;DHT22;44308;50.810;0.284;2022-10-31T00:24:07;15.30;99.90
58517;DHT22;44308;50.810;0.284;2022-10-31T00:26:33;15.30;99.90
58517;DHT22;44308;50.810;0.284;2022-10-31T00:29:01;15.10;99.90
58517;DHT22;44308;50.810;0.284;2022-10-31T00:31:27;15.20;99.90
58517;DHT22;44308;50.810;0.284;2022-10-31T00:33:53;14.70;99.90
58517;DHT22;44308;50.810;0.284;2022-10-31T00:36:20;14.70;99.90
58517;DHT22;44308;50.810;0.284;2022-10-31T00:38:47;15.20;99.90
58517;DHT22;44308;50.810;0.284;2022-10-31T00:41:15;15.20;99.90
58517;DHT22;44308;50.810;0.284;2022-10-31T00:43:42;15.20;99.90
58517;DHT22;44308;50.810;0.284;2022-10-31T00:46:11;15.10;99.90
58517;DHT22;44308;50.810;0.284;2022-10-31T00:48:36;14.70;99.90
58517;DHT22;44308;50.810;0.284;2022-10-31T00:51:02;14.90;99.90
58517;DHT22;44308;50.810;0.284;2022-10-31T00:53:28;15.00;99.90
58517;DHT22;44308;50.810;0.284;2022-10-31T00:55:54;15.10;99.90
58517;DHT22;44308;50.810;0.284;2022-10-31T00:58:20;14.60;99.90
58517;DHT22;44308;50.810;0.284;2022-10-31T01:00:48;15.10;99.90
58517;DHT22;44308;50.810;0.284;2022-10-31T01:03:21;14.60;99.90
58517;DHT22;44308;50.810;0.284;2022-10-31T01:05:59;14.80;99.90
58517;DHT22;44308;50.810;0.284;2022-10-31T01:08:25;14.80;99.90
58517;DHT22;44308;50.810;0.284;2022-10-31T01:13:31;14.50;99.90
58517;DHT22;44308;50.810;0.284;2022-10-31T01:15:58;14.90;99.90
58517;DHT22;44308;50.810;0.284;2022-10-31T01:18:24;14.90;99.90
58517;DHT22;44308;50.810;0.284;2022-10-31T01:21:01;14.50;99.90
58517;DHT22;44308;50.810;0.284;2022-10-31T01:23:27;14.50;99.90
58517;DHT22;44308;50.810;0.284;2022-10-31T01:28:35;15.00;99.90
58517;DHT22;44308;50.810;0.284;2022-10-31T01:31:06;14.50;99.90
58517;DHT22;44308;50.810;0.284;2022-10-31T01:33:32;14.90;99.90
58517;DHT22;44308;50.810;0.284;2022-10-31T01:35:58;14.40;99.90
58517;DHT22;44308;50.810;0.284;2022-10-31T01:38:24;14.50;99.90
58517;DHT22;44308;50.810;0.284;2022-10-31T01:40:50;14.40;99.90
58517;DHT22;44308;50.810;0.284;2022-10-31T01:43:16;14.80;99.90
58517;DHT22;44308;50.810;0.284;2022-10-31T01:45:46;14.40;99.90
58517;DHT22;44308;50.810;0.284;2022-10-31T01:48:20;14.80;99.90
58517;DHT22;44308;50.810;0.284;2022-10-31T01:50:48;14.50;99.90
58517;DHT22;44308;50.810;0.284;2022-10-31T01:53:17;14.40;99.90
58517;DHT22;44308;50.810;0.284;2022-10-31T01:59:27;14.70;99.90
58517;DHT22;44308;50.810;0.284;2022-10-31T02:01:55;14.80;99.90
58517;DHT22;44308;50.810;0.284;2022-10-31T02:04:22;14.30;99.90
58517;DHT22;44308;50.810;0.284;2022-10-31T02:06:56;14.70;99.90
58517;DHT22;44308;50.810;0.284;2022-10-31T02:09:23;14.50;99.90
58517;DHT22;44308;50.810;0.284;2022-10-31T02:11:56;14.60;99.90
58517;DHT22;44308;50.810;0.284;2022-10-31T02:14:24;14.20;99.90
58517;DHT22;44308;50.810;0.284;2022-10-31T02:16:50;14.70;99.90
58517;DHT22;44308;50.810;0.284;2022-10-31T02:19:25;14.20;99.90
58517;DHT22;44308;50.810;0.284;2022-10-31T02:22:01;14.60;99.90
58517;DHT22;44308;50.810;0.284;2022-10-31T02:24:36;14.30;99.90
58517;DHT22;44308;50.810;0.284;2022-10-31T02:46:45;14.20;99.90
58517;DHT22;44308;50.810;0.284;2022-10-31T02:50:02;14.20;99.90
58517;DHT22;44308;50.810;0.284;2022-10-31T02:52:20;14.10;99.90
58517;DHT22;44308;50.810;0.284;2022-10-31T02:54:47;14.30;99.90
58517;DHT22;44308;50.810;0.284;2022-10-31T02:57:14;14.10;99.90
58517;DHT22;44308;50.810;0.284;2022-10-31T02:59:46;14.20;99.90
58517;DHT22;44308;50.810;0.284;2022-10-31T03:05:12;14.70;99.90
58517;DHT22;44308;50.810;0.284;2022-10-31T03:08:23;14.50;99.90
58517;DHT22;44308;50.810;0.284;2022-10-31T03:13:09;14.70;99.90
58517;DHT22;44308;50.810;0.284;2022-10-31T03:15:47;14.40;99.90
58517;DHT22;44308;50.810;0.284;2022-10-31T03:18:34;14.80;99.90
58517;DHT22;44308;50.810;0.284;2022-10-31T03:21:13;14.60;99.90
58517;DHT22;44308;50.810;0.284;2022-10-31T03:23:43;14.40;99.90
58517;DHT22;44308;50.810;0.284;2022-10-31T03:26:12;14.80;99.90
58517;DHT22;44308;50.810;0.284;2022-10-31T03:31:17;14.80;99.90
58517;DHT22;44308;50.810;0.284;2022-10-31T03:33:44;14.60;99.90
58517;DHT22;44308;50.810;0.284;2022-10-31T03:36:14;14.30;99.90
58517;DHT22;44308;50.810;0.284;2022-10-31T03:38:42;14.70;99.90
58517;DHT22;44308;50.810;0.284;2022-10-31T03:41:13;14.70;99.90
58517;DHT22;44308;50.810;0.284;2022-10-31T03:43:44;14.60;99.90
58517;DHT22;44308;50.810;0.284;2022-10-31T03:46:10;14.70;99.90
58517;DHT22;44308;50.810;0.284;2022-10-31T03:48:36;14.30;99.90
58517;DHT22;44308;50.810;0.284;2022-10-31T03:53:41;14.60;99.90
58517;DHT22;44308;50.810;0.284;2022-10-31T03:56:33;14.10;99.90
58517;DHT22;44308;50.810;0.284;2022-10-31T03:59:15;14.10;99.90
58517;DHT22;44308;50.810;0.284;2022-10-31T04:01:46;14.10;99.90
58517;DHT22;44308;50.810;0.284;2022-10-31T04:04:13;14.60;99.90
58517;DHT22;44308;50.810;0.284;2022-10-31T04:06:42;14.50;99.90
58517;DHT22;44308;50.810;0.284;2022-10-31T04:09:09;14.00;99.90
58517;DHT22;44308;50.810;0.284;2022-10-31T04:11:40;14.30;99.90
58517;DHT22;44308;50.810;0.284;2022-10-31T04:14:41;14.10;99.90
58517;DHT22;44308;50.810;0.284;2022-10-31T04:17:12;14.20;99.90
58517;DHT22;44308;50.810;0.284;2022-10-31T04:19:39;14.00;99.90
58517;DHT22;44308;50.810;0.284;2022-10-31T04:22:07;14.40;99.90
58517;DHT22;44308;50.810;0.284;2022-10-31T04:24:33;14.00;99.90
58517;DHT22;44308;50.810;0.284;2022-10-31T04:26:59;13.90;99.90
58517;DHT22;44308;50.810;0.284;2022-10-31T04:29:24;14.00;99.90
58517;DHT22;44308;50.810;0.284;2022-10-31T04:31:50;13.90;99.90
58517;DHT22;44308;50.810;0.284;2022-10-31T04:34:18;14.20;99.90
58517;DHT22;44308;50.810;0.284;2022-10-31T04:36:45;14.00;99.90
58517;DHT22;44308;50.810;0.284;2022-10-31T04:39:11;14.10;99.90
58517;DHT22;44308;50.810;0.284;2022-10-31T04:41:37;13.90;99.90
58517;DHT22;44308;50.810;0.284;2022-10-31T04:44:02;14.40;99.90
58517;DHT22;44308;50.810;0.284;2022-10-31T04:46:29;14.30;99.90
58517;DHT22;44308;50.810;0.284;2022-10-31T04:48:55;14.10;99.90
58517;DHT22;44308;50.810;0.284;2022-10-31T04:51:21;14.10;99.90
58517;DHT22;44308;50.810;0.284;2022-10-31T04:53:47;14.20;99.90
58517;DHT22;44308;50.810;0.284;2022-10-31T04:56:14;14.70;99.90
58517;DHT22;44308;50.810;0.284;2022-10-31T04:58:40;14.10;99.90
58517;DHT22;44308;50.810;0.284;2022-10-31T05:01:06;14.50;99.90
58517;DHT22;44308;50.810;0.284;2022-10-31T05:03:31;14.30;99.90
58517;DHT22;44308;50.810;0.284;2022-10-31T05:05:57;14.40;99.90
58517;DHT22;44308;50.810;0.284;2022-10-31T05:08:23;14.50;99.90
58517;DHT22;44308;50.810;0.284;2022-10-31T05:10:48;14.60;99.90
58517;DHT22;44308;50.810;0.284;2022-10-31T05:13:14;14.20;99.90
58517;DHT22;44308;50.810;0.284;2022-10-31T05:15:42;14.40;99.90
58517;DHT22;44308;50.810;0.284;2022-10-31T05:18:07;14.60;99.90
58517;DHT22;44308;50.810;0.284;2022-10-31T05:20:33;14.20;99.90
58517;DHT22;44308;50.810;0.284;2022-10-31T05:22:59;14.10;99.90
58517;DHT22;44308;50.810;0.284;2022-10-31T05:25:28;14.00;99.90
58517;DHT22;44308;50.810;0.284;2022-10-31T05:27:55;14.40;99.90
58517;DHT22;44308;50.810;0.284;2022-10-31T05:30:24;14.50;99.90
58517;DHT22;44308;50.810;0.284;2022-10-31T05:32:50;13.90;99.90
58517;DHT22;44308;50.810;0.284;2022-10-31T05:35:22;14.20;99.90
58517;DHT22;44308;50.810;0.284;2022-10-31T05:37:48;14.00;99.90
58517;DHT22;44308;50.810;0.284;2022-10-31T05:40:15;14.30;99.90
58517;DHT22;44308;50.810;0.284;2022-10-31T05:42:42;14.30;99.90
58517;DHT22;44308;50.810;0.284;2022-10-31T05:45:14;13.90;99.90
58517;DHT22;44308;50.810;0.284;2022-10-31T05:47:41;14.00;99.90
58517;DHT22;44308;50.810;0.284;2022-10-31T05:50:09;13.90;99.90
58517;DHT22;44308;50.810;0.284;2022-10-31T05:52:35;13.90;99.90
58517;DHT22;44308;50.810;0.284;2022-10-31T05:55:03;14.40;99.90
58517;DHT22;44308;50.810;0.284;2022-10-31T05:57:29;14.50;99.90
58517;DHT22;44308;50.810;0.284;2022-10-31T05:59:55;14.00;99.90
58517;DHT22;44308;50.810;0.284;2022-10-31T06:02:21;14.20;99.90
58517;DHT22;44308;50.810;0.284;2022-10-31T06:04:47;14.00;99.90
58517;DHT22;44308;50.810;0.284;2022-10-31T06:07:13;14.50;99.90
58517;DHT22;44308;50.810;0.284;2022-10-31T06:09:38;14.00;99.90
58517;DHT22;44308;50.810;0.284;2022-10-31T06:12:04;14.00;99.90
58517;DHT22;44308;50.810;0.284;2022-10-31T06:14:32;14.00;99.90
58517;DHT22;44308;50.810;0.284;2022-10-31T06:16:58;13.90;99.90
58517;DHT22;44308;50.810;0.284;2022-10-31T06:19:24;14.30;99.90
58517;DHT22;44308;50.810;0.284;2022-10-31T06:21:49;13.80;99.90
58517;DHT22;44308;50.810;0.284;2022-10-31T06:24:15;13.90;99.90
58517;DHT22;44308;50.810;0.284;2022-10-31T06:26:41;13.80;99.90
58517;DHT22;44308;50.810;0.284;2022-10-31T06:29:07;13.60;99.90
58517;DHT22;44308;50.810;0.284;2022-10-31T06:31:33;14.20;99.90
58517;DHT22;44308;50.810;0.284;2022-10-31T06:33:58;14.10;99.90
58517;DHT22;44308;50.810;0.284;2022-10-31T06:40:18;13.70;99.90
58517;DHT22;44308;50.810;0.284;2022-10-31T06:42:43;13.60;99.90
58517;DHT22;44308;50.810;0.284;2022-10-31T06:45:09;14.00;99.90
58517;DHT22;44308;50.810;0.284;2022-10-31T06:47:35;14.20;99.90
58517;DHT22;44308;50.810;0.284;2022-10-31T06:50:01;14.00;99.90
58517;DHT22;44308;50.810;0.284;2022-10-31T06:52:26;14.00;99.90
58517;DHT22;44308;50.810;0.284;2022-10-31T06:54:53;13.90;99.90
58517;DHT22;44308;50.810;0.284;2022-10-31T06:57:19;13.80;99.90
58517;DHT22;44308;50.810;0.284;2022-10-31T06:59:44;14.10;99.90
58517;DHT22;44308;50.810;0.284;2022-10-31T07:02:11;13.80;99.90
58517;DHT22;44308;50.810;0.284;2022-10-31T07:04:55;14.10;99.90
58517;DHT22;44308;50.810;0.284;2022-10-31T07:07:21;13.80;99.90
58517;DHT22;44308;50.810;0.284;2022-10-31T07:09:47;13.90;99.90
58517;DHT22;44308;50.810;0.284;2022-10-31T07:12:12;14.00;99.90
58517;DHT22;44308;50.810;0.284;2022-10-31T07:14:41;13.60;99.90
58517;DHT22;44308;50.810;0.284;2022-10-31T07:17:15;13.60;99.90
58517;DHT22;44308;50.810;0.284;2022-10-31T07:19:41;13.80;99.90
58517;DHT22;44308;50.810;0.284;2022-10-31T07:22:07;13.60;99.90
58517;DHT22;44308;50.810;0.284;2022-10-31T07:24:33;13.70;99.90
58517;DHT22;44308;50.810;0.284;2022-10-31T07:26:58;13.60;99.90
58517;DHT22;44308;50.810;0.284;2022-10-31T07:29:24;13.80;99.90
58517;DHT22;44308;50.810;0.284;2022-10-31T07:31:49;13.40;99.90
58517;DHT22;44308;50.810;0.284;2022-10-31T07:34:15;13.50;99.90
58517;DHT22;44308;50.810;0.284;2022-10-31T07:36:41;13.90;99.90
58517;DHT22;44308;50.810;0.284;2022-10-31T07:39:07;14.00;99.90
58517;DHT22;44308;50.810;0.284;2022-10-31T07:41:32;13.90;99.90
58517;DHT22;44308;50.810;0.284;2022-10-31T07:43:58;13.70;99.90
58517;DHT22;44308;50.810;0.284;2022-10-31T07:46:24;14.10;99.90
58517;DHT22;44308;50.810;0.284;2022-10-31T07:48:50;14.30;99.90
58517;DHT22;44308;50.810;0.284;2022-10-31T07:51:15;14.30;99.90
58517;DHT22;44308;50.810;0.284;2022-10-31T07:53:42;14.40;99.90
58517;DHT22;44308;50.810;0.284;2022-10-31T07:56:08;14.00;99.90
58517;DHT22;44308;50.810;0.284;2022-10-31T07:58:34;14.20;99.90
58517;DHT22;44308;50.810;0.284;2022-10-31T08:01:00;14.20;99.90
58517;DHT22;44308;50.810;0.284;2022-10-31T08:03:25;14.70;99.90
58517;DHT22;44308;50.810;0.284;2022-10-31T08:05:53;15.00;99.90
58517;DHT22;44308;50.810;0.284;2022-10-31T08:08:19;15.10;99.90
58517;DHT22;44308;50.810;0.284;2022-10-31T08:10:45;14.60;99.90
58517;DHT22;44308;50.810;0.284;2022-10-31T08:13:12;14.70;99.90
58517;DHT22;44308;50.810;0.284;2022-10-31T08:15:38;14.80;99.90
58517;DHT22;44308;50.810;0.284;2022-10-31T08:18:13;15.30;99.90
58517;DHT22;44308;50.810;0.284;2022-10-31T08:20:39;15.40;99.90
58517;DHT22;44308;50.810;0.284;2022-10-31T08:23:05;15.10;99.90
58517;DHT22;44308;50.810;0.284;2022-10-31T08:25:32;15.50;99.90
58517;DHT22;44308;50.810;0.284;2022-10-31T08:27:59;15.30;99.90
58517;DHT22;44308;50.810;0.284;2022-10-31T08:30:27;15.80;99.90
58517;DHT22;44308;50.810;0.284;2022-10-31T08:33:14;15.50;99.90
58517;DHT22;44308;50.810;0.284;2022-10-31T08:35:40;15.90;99.90
58517;DHT22;44308;50.810;0.284;2022-10-31T08:38:07;15.50;99.90
58517;DHT22;44308;50.810;0.284;2022-10-31T08:40:33;15.60;99.90
58517;DHT22;44308;50.810;0.284;2022-10-31T08:43:06;16.00;99.90
58517;DHT22;44308;50.810;0.284;2022-10-31T08:45:33;15.90;99.90
58517;DHT22;44308;50.810;0.284;2022-10-31T08:48:02;16.20;99.90
58517;DHT22;44308;50.810;0.284;2022-10-31T08:50:30;16.00;99.90
58517;DHT22;44308;50.810;0.284;2022-10-31T08:53:04;16.00;99.90
58517;DHT22;44308;50.810;0.284;2022-10-31T08:55:34;16.00;99.90
58517;DHT22;44308;50.810;0.284;2022-10-31T08:58:01;15.90;99.90
58517;DHT22;44308;50.810;0.284;2022-10-31T09:00:27;15.50;99.90
58517;DHT22;44308;50.810;0.284;2022-10-31T09:02:57;15.70;99.90
58517;DHT22;44308;50.810;0.284;2022-10-31T09:05:23;15.90;99.90
58517;DHT22;44308;50.810;0.284;2022-10-31T09:07:48;15.80;99.90
58517;DHT22;44308;50.810;0.284;2022-10-31T09:10:14;16.00;99.90
58517;DHT22;44308;50.810;0.284;2022-10-31T09:12:40;16.60;99.90
58517;DHT22;44308;50.810;0.284;2022-10-31T09:15:07;16.50;99.90
58517;DHT22;44308;50.810;0.284;2022-10-31T09:17:33;16.80;99.90
58517;DHT22;44308;50.810;0.284;2022-10-31T09:19:59;17.10;99.90
58517;DHT22;44308;50.810;0.284;2022-10-31T09:22:24;17.80;99.90
58517;DHT22;44308;50.810;0.284;2022-10-31T09:24:51;18.10;99.90
58517;DHT22;44308;50.810;0.284;2022-10-31T09:27:17;18.10;99.90
58517;DHT22;44308;50.810;0.284;2022-10-31T09:29:42;18.40;99.90
58517;DHT22;44308;50.810;0.284;2022-10-31T09:32:08;18.70;99.90
58517;DHT22;44308;50.810;0.284;2022-10-31T09:34:33;18.40;99.90
58517;DHT22;44308;50.810;0.284;2022-10-31T09:36:59;18.50;99.90
58517;DHT22;44308;50.810;0.284;2022-10-31T09:39:25;18.70;99.90
58517;DHT22;44308;50.810;0.284;2022-10-31T09:50:25;19.30;99.90
58517;DHT22;44308;50.810;0.284;2022-10-31T09:53:47;19.50;99.90
58517;DHT22;44308;50.810;0.284;2022-10-31T09:56:24;19.50;99.90
58517;DHT22;44308;50.810;0.284;2022-10-31T09:58:55;19.50;99.90
58517;DHT22;44308;50.810;0.284;2022-10-31T10:04:39;19.20;99.90
58517;DHT22;44308;50.810;0.284;2022-10-31T10:09:47;18.60;99.90
58517;DHT22;44308;50.810;0.284;2022-10-31T10:12:28;18.80;99.90
58517;DHT22;44308;50.810;0.284;2022-10-31T10:18:11;18.60;99.90
58517;DHT22;44308;50.810;0.284;2022-10-31T10:23:47;19.00;99.90
58517;DHT22;44308;50.810;0.284;2022-10-31T10:26:22;18.90;99.90
58517;DHT22;44308;50.810;0.284;2022-10-31T10:31:55;18.60;99.90
58517;DHT22;44308;50.810;0.284;2022-10-31T10:34:31;19.00;99.90
58517;DHT22;44308;50.810;0.284;2022-10-31T10:37:17;19.00;99.90
58517;DHT22;44308;50.810;0.284;2022-10-31T10:39:50;19.00;99.90
58517;DHT22;44308;50.810;0.284;2022-10-31T10:42:17;18.70;99.90
58517;DHT22;44308;50.810;0.284;2022-10-31T10:45:23;18.90;99.90
58517;DHT22;44308;50.810;0.284;2022-10-31T10:48:15;19.20;99.90
58517;DHT22;44308;50.810;0.284;2022-10-31T10:50:48;19.50;99.90
58517;DHT22;44308;50.810;0.284;2022-10-31T10:56:16;19.20;99.90
58517;DHT22;44308;50.810;0.284;2022-10-31T10:58:43;19.00;99.90
58517;DHT22;44308;50.810;0.284;2022-10-31T11:01:12;18.70;99.90
58517;DHT22;44308;50.810;0.284;2022-10-31T11:03:39;18.70;99.90
58517;DHT22;44308;50.810;0.284;2022-10-31T11:06:17;18.50;99.90
58517;DHT22;44308;50.810;0.284;2022-10-31T11:08:43;18.60;99.90
58517;DHT22;44308;50.810;0.284;2022-10-31T11:11:27;18.60;99.90
58517;DHT22;44308;50.810;0.284;2022-10-31T11:14:00;18.90;99.90
58517;DHT22;44308;50.810;0.284;2022-10-31T11:16:43;18.60;99.90
58517;DHT22;44308;50.810;0.284;2022-10-31T11:19:19;18.30;99.90
58517;DHT22;44308;50.810;0.284;2022-10-31T11:21:47;18.40;99.90
58517;DHT22;44308;50.810;0.284;2022-10-31T11:24:25;18.20;99.90
58517;DHT22;44308;50.810;0.284;2022-10-31T11:27:16;18.30;99.90
58517;DHT22;44308;50.810;0.284;2022-10-31T11:29:45;18.40;99.90
58517;DHT22;44308;50.810;0.284;2022-10-31T11:32:28;18.40;99.90
58517;DHT22;44308;50.810;0.284;2022-10-31T11:34:59;18.40;99.90
58517;DHT22;44308;50.810;0.284;2022-10-31T11:37:27;18.20;99.90
58517;DHT22;44308;50.810;0.284;2022-10-31T11:39:58;18.40;99.90
58517;DHT22;44308;50.810;0.284;2022-10-31T11:42:27;18.10;99.90
58517;DHT22;44308;50.810;0.284;2022-10-31T11:44:54;17.70;99.90
58517;DHT22;44308;50.810;0.284;2022-10-31T11:47:26;17.30;99.90
58517;DHT22;44308;50.810;0.284;2022-10-31T11:49:52;17.50;99.90
58517;DHT22;44308;50.810;0.284;2022-10-31T11:52:27;17.40;99.90
58517;DHT22;44308;50.810;0.284;2022-10-31T11:54:57;17.50;99.90
58517;DHT22;44308;50.810;0.284;2022-10-31T11:57:32;17.60;99.90
58517;DHT22;44308;50.810;0.284;2022-10-31T12:00:00;17.50;99.90
58517;DHT22;44308;50.810;0.284;2022-10-31T12:02:27;17.40;99.90
58517;DHT22;44308;50.810;0.284;2022-10-31T12:07:35;17.30;99.90
58517;DHT22;44308;50.810;0.284;2022-10-31T12:10:00;17.10;99.90
58517;DHT22;44308;50.810;0.284;2022-10-31T12:32:19;17.60;99.90
58517;DHT22;44308;50.810;0.284;2022-10-31T12:40:51;17.60;99.90
58517;DHT22;44308;50.810;0.284;2022-10-31T12:43:55;17.50;99.90
58517;DHT22;44308;50.810;0.284;2022-10-31T12:46:33;17.30;99.90
58517;DHT22;44308;50.810;0.284;2022-10-31T12:49:17;17.20;99.90
58517;DHT22;44308;50.810;0.284;2022-10-31T12:54:50;17.10;99.90
58517;DHT22;44308;50.810;0.284;2022-10-31T12:57:19;17.10;99.90
58517;DHT22;44308;50.810;0.284;2022-10-31T13:00:13;17.00;99.90
58517;DHT22;44308;50.810;0.284;2022-10-31T13:02:58;17.00;99.90
58517;DHT22;44308;50.810;0.284;2022-10-31T13:05:32;16.70;99.90
58517;DHT22;44308;50.810;0.284;2022-10-31T13:08:16;16.70;99.90
58517;DHT22;44308;50.810;0.284;2022-10-31T13:11:16;17.00;99.90
58517;DHT22;44308;50.810;0.284;2022-10-31T13:13:54;17.00;99.90
58517;DHT22;44308;50.810;0.284;2022-10-31T13:16:25;16.90;99.90
58517;DHT22;44308;50.810;0.284;2022-10-31T13:21:27;17.10;99.90
58517;DHT22;44308;50.810;0.284;2022-10-31T13:23:58;17.10;99.90
58517;DHT22;44308;50.810;0.284;2022-10-31T13:31:41;16.70;99.90
58517;DHT22;44308;50.810;0.284;2022-10-31T13:34:30;17.10;99.90
58517;DHT22;44308;50.810;0.284;2022-10-31T13:41:58;17.10;99.90
58517;DHT22;44308;50.810;0.284;2022-10-31T13:44:27;17.20;99.90
58517;DHT22;44308;50.810;0.284;2022-10-31T13:46:55;16.90;99.90
58517;DHT22;44308;50.810;0.284;2022-10-31T13:54:38;17.10;99.90
58517;DHT22;44308;50.810;0.284;2022-10-31T13:57:17;17.00;99.90
58517;DHT22;44308;50.810;0.284;2022-10-31T13:59:50;17.10;99.90
58517;DHT22;44308;50.810;0.284;2022-10-31T14:02:20;17.00;99.90
58517;DHT22;44308;50.810;0.284;2022-10-31T14:04:53;17.10;99.90
58517;DHT22;44308;50.810;0.284;2022-10-31T14:07:22;17.10;99.90
58517;DHT22;44308;50.810;0.284;2022-10-31T14:12:47;17.50;99.90
58517;DHT22;44308;50.810;0.284;2022-10-31T14:15:21;17.60;99.90
58517;DHT22;44308;50.810;0.284;2022-10-31T14:17:57;17.50;99.90
58517;DHT22;44308;50.810;0.284;2022-10-31T14:20:34;17.40;99.90
58517;DHT22;44308;50.810;0.284;2022-10-31T14:25:50;17.50;99.90
58517;DHT22;44308;50.810;0.284;2022-10-31T14:28:22;17.30;99.90
58517;DHT22;44308;50.810;0.284;2022-10-31T14:30:58;17.40;99.90
58517;DHT22;44308;50.810;0.284;2022-10-31T14:33:29;16.90;99.90
58517;DHT22;44308;50.810;0.284;2022-10-31T14:36:17;17.00;99.90
58517;DHT22;44308;50.810;0.284;2022-10-31T14:38:52;17.00;99.90
58517;DHT22;44308;50.810;0.284;2022-10-31T14:52:57;16.90;99.90
58517;DHT22;44308;50.810;0.284;2022-10-31T14:55:26;16.90;99.90
58517;DHT22;44308;50.810;0.284;2022-10-31T14:58:05;16.80;99.90
58517;DHT22;44308;50.810;0.284;2022-10-31T15:00:33;16.50;99.90
58517;DHT22;44308;50.810;0.284;2022-10-31T15:05:26;16.50;99.90
58517;DHT22;44308;50.810;0.284;2022-10-31T15:07:57;16.40;99.90
58517;DHT22;44308;50.810;0.284;2022-10-31T15:12:48;16.40;99.90
58517;DHT22;44308;50.810;0.284;2022-10-31T15:15:24;16.40;99.90
58517;DHT22;44308;50.810;0.284;2022-10-31T15:17:56;16.60;99.90
58517;DHT22;44308;50.810;0.284;2022-10-31T15:20:26;16.80;99.90
58517;DHT22;44308;50.810;0.284;2022-10-31T15:22:55;16.50;99.90
58517;DHT22;44308;50.810;0.284;2022-10-31T15:25:23;16.40;99.90
58517;DHT22;44308;50.810;0.284;2022-10-31T15:27:51;16.50;99.90
58517;DHT22;44308;50.810;0.284;2022-10-31T15:30:25;16.40;99.90
58517;DHT22;44308;50.810;0.284;2022-10-31T15:32:52;16.80;99.90
58517;DHT22;44308;50.810;0.284;2022-10-31T15:35:29;16.40;99.90
58517;DHT22;44308;50.810;0.284;2022-10-31T15:37:57;16.70;99.90
58517;DHT22;44308;50.810;0.284;2022-10-31T15:40:26;16.40;99.90
58517;DHT22;44308;50.810;0.284;2022-10-31T15:42:59;16.70;99.90
58517;DHT22;44308;50.810;0.284;2022-10-31T15:45:27;16.90;99.90
58517;DHT22;44308;50.810;0.284;2022-10-31T15:48:01;16.40;99.90
58517;DHT22;44308;50.810;0.284;2022-10-31T15:50:31;16.40;99.90
58517;DHT22;44308;50.810;0.284;2022-10-31T15:52:58;16.40;99.90
58517;DHT22;44308;50.810;0.284;2022-10-31T15:55:28;16.30;99.90
58517;DHT22;44308;50.810;0.284;2022-10-31T15:58:01;16.80;99.90
58517;DHT22;44308;50.810;0.284;2022-10-31T16:00:36;16.30;99.90
58517;DHT22;44308;50.810;0.284;2022-10-31T16:05:46;16.30;99.90
58517;DHT22;44308;50.810;0.284;2022-10-31T16:08:45;16.30;99.90
58517;DHT22;44308;50.810;0.284;2022-10-31T16:13:41;16.80;99.90
58517;DHT22;44308;50.810;0.284;2022-10-31T16:16:17;16.30;99.90
58517;DHT22;44308;50.810;0.284;2022-10-31T16:18:45;16.70;99.90
58517;DHT22;44308;50.810;0.284;2022-10-31T16:21:12;16.40;99.90
58517;DHT22;44308;50.810;0.284;2022-10-31T16:23:43;16.70;99.90
58517;DHT22;44308;50.810;0.284;2022-10-31T16:26:12;16.60;99.90
58517;DHT22;44308;50.810;0.284;2022-10-31T16:28:49;15.90;99.90
58517;DHT22;44308;50.810;0.284;2022-10-31T16:31:15;16.30;99.90
58517;DHT22;44308;50.810;0.284;2022-10-31T16:33:41;16.20;99.90
58517;DHT22;44308;50.810;0.284;2022-10-31T16:36:31;16.30;99.90
58517;DHT22;44308;50.810;0.284;2022-10-31T16:39:00;16.20;99.90
58517;DHT22;44308;50.810;0.284;2022-10-31T16:41:26;15.80;99.90
58517;DHT22;44308;50.810;0.284;2022-10-31T16:43:52;16.20;99.90
58517;DHT22;44308;50.810;0.284;2022-10-31T16:46:23;15.70;99.90
58517;DHT22;44308;50.810;0.284;2022-10-31T16:48:50;16.20;99.90
58517;DHT22;44308;50.810;0.284;2022-10-31T16:51:16;16.30;99.90
58517;DHT22;44308;50.810;0.284;2022-10-31T16:53:41;15.80;99.90
58517;DHT22;44308;50.810;0.284;2022-10-31T16:56:20;16.40;99.90
58517;DHT22;44308;50.810;0.284;2022-10-31T16:58:48;15.90;99.90
58517;DHT22;44308;50.810;0.284;2022-10-31T17:01:14;16.40;99.90
58517;DHT22;44308;50.810;0.284;2022-10-31T17:03:39;16.50;99.90
58517;DHT22;44308;50.810;0.284;2022-10-31T17:06:05;16.00;99.90
58517;DHT22;44308;50.810;0.284;2022-10-31T17:08:31;16.00;99.90
58517;DHT22;44308;50.810;0.284;2022-10-31T17:10:58;16.60;99.90
58517;DHT22;44308;50.810;0.284;2022-10-31T17:13:29;16.70;99.90
58517;DHT22;44308;50.810;0.284;2022-10-31T17:15:58;16.50;99.90
58517;DHT22;44308;50.810;0.284;2022-10-31T17:18:24;16.70;99.90
58517;DHT22;44308;50.810;0.284;2022-10-31T17:20:50;16.70;99.90
58517;DHT22;44308;50.810;0.284;2022-10-31T17:23:20;16.20;99.90
58517;DHT22;44308;50.810;0.284;2022-10-31T17:25:46;16.10;99.90
58517;DHT22;44308;50.810;0.284;2022-10-31T17:28:13;16.70;99.90
58517;DHT22;44308;50.810;0.284;2022-10-31T17:30:40;16.20;99.90
58517;DHT22;44308;50.810;0.284;2022-10-31T17:33:08;16.50;99.90
58517;DHT22;44308;50.810;0.284;2022-10-31T17:35:35;16.60;99.90
58517;DHT22;44308;50.810;0.284;2022-10-31T17:38:01;16.10;99.90
58517;DHT22;44308;50.810;0.284;2022-10-31T17:40:27;16.40;99.90
58517;DHT22;44308;50.810;0.284;2022-10-31T17:42:55;16.50;99.90
58517;DHT22;44308;50.810;0.284;2022-10-31T17:45:24;16.70;99.90
58517;DHT22;44308;50.810;0.284;2022-10-31T17:47:51;16.20;99.90
58517;DHT22;44308;50.810;0.284;2022-10-31T17:50:19;16.20;99.90
58517;DHT22;44308;50.810;0.284;2022-10-31T17:52:45;16.70;99.90
58517;DHT22;44308;50.810;0.284;2022-10-31T17:55:12;16.50;99.90
58517;DHT22;44308;50.810;0.284;2022-10-31T17:57:38;16.50;99.90
58517;DHT22;44308;50.810;0.284;2022-10-31T18:00:07;16.40;99.90
58517;DHT22;44308;50.810;0.284;2022-10-31T18:02:36;16.40;99.90
58517;DHT22;44308;50.810;0.284;2022-10-31T18:08:06;16.40;99.90
58517;DHT22;44308;50.810;0.284;2022-10-31T18:10:32;16.20;99.90
58517;DHT22;44308;50.810;0.284;2022-10-31T18:12:58;16.60;99.90
58517;DHT22;44308;50.810;0.284;2022-10-31T18:15:25;16.60;99.90
58517;DHT22;44308;50.810;0.284;2022-10-31T18:17:51;16.80;99.90